Time;durP1;ratioP1;P1;durP2;ratioP2;P2;SDS_P1;SDS_P2;PMS_P1;PMS_P2;Temp;Humidity;BMP_temperature;BMP_pressure;BME280_temperature;BME280_humidity;BME280_pressure;Samples;Min_cycle;Max_cycle;Signal;HPM_P1;HPM_P2
2021/04/12 00:05:19;;;;;;;0.70;0.40;;;18.20;50.40;;;;;;10358064;28;20222;-67
2021/04/12 00:10:46;;;;;;;1.07;0.50;;;18.20;50.30;;;;;;10351496;28;20555;-67
2021/04/12 00:16:13;;;;;;;0.70;0.40;;;18.20;50.30;;;;;;10370046;28;20221;-67
2021/04/12 00:21:42;;;;;;;1.73;0.40;;;18.20;50.40;;;;;;10367021;28;20187;-67
2021/04/12 00:27:08;;;;;;;0.60;0.33;;;18.20;50.40;;;;;;10369581;28;20214;-67
2021/04/12 00:32:34;;;;;;;1.00;0.33;;;18.20;50.40;;;;;;10369034;28;20198;-67
2021/04/12 00:38:04;;;;;;;1.00;0.40;;;18.20;50.40;;;;;;10329872;28;20211;-68
2021/04/12 00:43:35;;;;;;;0.60;0.30;;;18.20;50.50;;;;;;10358452;28;20214;-68
2021/04/12 00:49:36;;;;;;;1.83;0.40;;;18.20;50.50;;;;;;10376007;28;20210;-67
2021/04/12 00:55:17;;;;;;;0.80;0.53;;;18.20;50.50;;;;;;10375377;28;20228;-67
2021/04/12 01:00:44;;;;;;;0.83;0.43;;;18.20;50.50;;;;;;10376004;28;20218;-67
2021/04/12 01:06:12;;;;;;;0.90;0.33;;;18.20;50.60;;;;;;10336738;28;20218;-67
2021/04/12 01:11:57;;;;;;;0.77;0.40;;;18.20;50.60;;;;;;10336191;28;20670;-67
2021/04/12 01:17:50;;;;;;;0.30;0.30;;;18.20;50.60;;;;;;10366536;28;20214;-68
2021/04/12 01:23:51;;;;;;;0.30;0.30;;;18.20;50.60;;;;;;10374336;28;20195;-68
2021/04/12 01:29:50;;;;;;;0.83;0.20;;;18.20;50.60;;;;;;10373930;28;20227;-67
2021/04/12 01:35:34;;;;;;;0.73;0.47;;;18.20;50.70;;;;;;10366609;28;20702;-67
2021/04/12 01:41:20;;;;;;;0.90;0.47;;;18.20;50.70;;;;;;10356940;28;20334;-67
2021/04/12 01:46:49;;;;;;;0.50;0.30;;;18.20;50.70;;;;;;10374828;28;20705;-67
2021/04/12 01:52:30;;;;;;;0.50;0.30;;;18.20;50.70;;;;;;10333781;28;20254;-67
2021/04/12 01:58:34;;;;;;;0.20;0.20;;;18.20;50.80;;;;;;10333537;28;20246;-67
2021/04/12 02:04:12;;;;;;;1.03;0.40;;;18.20;50.70;;;;;;10372107;28;20198;-67
2021/04/12 02:09:46;;;;;;;0.60;0.40;;;18.20;50.70;;;;;;10373546;28;20190;-67
2021/04/12 02:15:17;;;;;;;0.80;0.30;;;18.10;50.70;;;;;;10369228;28;20211;-67
2021/04/12 02:20:51;;;;;;;1.17;0.47;;;18.20;50.80;;;;;;10351109;28;20218;-67
2021/04/12 02:26:36;;;;;;;0.93;0.40;;;18.20;50.80;;;;;;10373387;28;20268;-67
2021/04/12 02:32:22;;;;;;;0.97;0.33;;;18.10;50.70;;;;;;10355920;28;20198;-67
2021/04/12 02:38:02;;;;;;;0.60;0.40;;;18.20;50.80;;;;;;10332128;28;20654;-67
2021/04/12 02:43:50;;;;;;;0.40;0.20;;;18.10;50.80;;;;;;10351959;28;20261;-68
2021/04/12 02:49:19;;;;;;;0.93;0.40;;;18.10;50.80;;;;;;10371108;28;20221;-68
2021/04/12 02:55:31;;;;;;;0.30;0.30;;;18.20;50.80;;;;;;10356802;28;20199;-67
2021/04/12 03:01:05;;;;;;;0.50;0.30;;;18.10;50.70;;;;;;10289805;28;20287;-69
2021/04/12 03:06:54;;;;;;;0.73;0.33;;;18.10;50.80;;;;;;10331654;28;20246;-68
2021/04/12 03:12:59;;;;;;;0.50;0.30;;;18.10;50.80;;;;;;10331274;28;20187;-68
2021/04/12 03:18:58;;;;;;;0.50;0.30;;;18.20;50.80;;;;;;10335959;28;20276;-69
2021/04/12 03:24:26;;;;;;;0.80;0.33;;;18.20;50.80;;;;;;10364592;28;20708;-68
2021/04/12 03:29:59;;;;;;;0.30;0.30;;;18.20;50.90;;;;;;10370321;28;20190;-68
2021/04/12 03:35:30;;;;;;;0.40;0.30;;;18.10;50.90;;;;;;10335338;28;20215;-68
2021/04/12 03:41:22;;;;;;;1.43;0.50;;;18.20;50.90;;;;;;10356772;28;20229;-68
2021/04/12 03:46:56;;;;;;;0.23;0.20;;;18.20;50.70;;;;;;10365697;28;20661;-68
2021/04/12 03:52:38;;;;;;;1.13;0.40;;;18.30;50.60;;;;;;10351746;28;20472;-68
2021/04/12 03:58:35;;;;;;;0.37;0.20;;;18.30;50.50;;;;;;10328585;28;20245;-68
2021/04/12 04:04:29;;;;;;;0.87;0.37;;;18.30;50.50;;;;;;10329558;28;20210;-67
2021/04/12 04:10:02;;;;;;;1.00;0.40;;;18.30;50.40;;;;;;10329626;28;20194;-68
2021/04/12 04:15:36;;;;;;;1.17;0.40;;;18.40;50.60;;;;;;10335022;28;20222;-68
2021/04/12 04:21:34;;;;;;;0.30;0.27;;;18.30;50.60;;;;;;10338443;28;20234;-68
2021/04/12 04:27:36;;;;;;;0.23;0.23;;;18.40;50.60;;;;;;10356800;28;20237;-68
2021/04/12 04:33:13;;;;;;;0.20;0.20;;;18.40;50.60;;;;;;10376587;28;20218;-67
2021/04/12 04:38:52;;;;;;;0.83;0.30;;;18.40;50.60;;;;;;10369206;28;21000;-68
2021/04/12 04:44:35;;;;;;;0.93;0.53;;;18.40;50.60;;;;;;10363533;28;20206;-68
2021/04/12 04:50:13;;;;;;;0.40;0.30;;;18.50;50.70;;;;;;10360756;28;20194;-68
2021/04/12 04:55:46;;;;;;;0.90;0.50;;;18.50;50.60;;;;;;10376057;28;20230;-68
2021/04/12 05:01:24;;;;;;;1.37;0.27;;;18.50;50.60;;;;;;10375549;28;20602;-68
2021/04/12 05:07:32;;;;;;;0.20;0.20;;;18.50;50.60;;;;;;10349257;28;20249;-68
2021/04/12 05:13:16;;;;;;;0.30;0.30;;;18.50;50.70;;;;;;10297976;28;20203;-68
2021/04/12 05:19:14;;;;;;;0.77;0.53;;;18.50;50.60;;;;;;10335087;28;20211;-67
2021/04/12 05:25:14;;;;;;;0.60;0.30;;;18.50;50.70;;;;;;10338184;28;20191;-68
2021/04/12 05:30:55;;;;;;;0.83;0.37;;;18.50;50.60;;;;;;10372375;28;20190;-68
2021/04/12 05:36:43;;;;;;;0.40;0.30;;;18.50;50.60;;;;;;10374738;28;20207;-68
2021/04/12 05:42:25;;;;;;;2.00;0.60;;;18.50;50.60;;;;;;10371597;28;20197;-68
2021/04/12 05:48:06;;;;;;;0.50;0.30;;;18.60;50.60;;;;;;10372994;28;20707;-68
2021/04/12 05:53:59;;;;;;;0.93;0.40;;;18.50;50.60;;;;;;10373005;28;20202;-68
2021/04/12 05:59:36;;;;;;;1.00;0.30;;;18.60;50.50;;;;;;10366245;28;20214;-68
2021/04/12 06:05:05;;;;;;;0.43;0.20;;;18.50;50.50;;;;;;10365606;28;20238;-68
2021/04/12 06:10:47;;;;;;;0.87;0.40;;;18.50;50.60;;;;;;10373384;28;20248;-68
2021/04/12 06:16:48;;;;;;;0.30;0.30;;;18.50;50.80;;;;;;10357422;28;20222;-67
2021/04/12 06:22:23;;;;;;;0.60;0.20;;;18.50;51.00;;;;;;10361597;28;20257;-68
2021/04/12 06:28:15;;;;;;;1.63;0.43;;;18.50;51.30;;;;;;10371918;28;20685;-67
2021/04/12 06:33:57;;;;;;;0.73;0.20;;;18.50;51.40;;;;;;10343075;28;20206;-68
2021/04/12 06:40:07;;;;;;;0.80;0.40;;;18.40;51.40;;;;;;10371210;28;20214;-69
2021/04/12 06:46:05;;;;;;;0.40;0.40;;;18.50;51.40;;;;;;10371183;28;20226;-68
2021/04/12 06:52:12;;;;;;;0.60;0.40;;;18.60;51.20;;;;;;10331204;28;20191;-68
2021/04/12 06:58:33;;;;;;;2.30;0.30;;;18.60;51.30;;;;;;10370636;28;20725;-67
2021/04/12 07:04:53;;;;;;;3.80;0.60;;;18.50;51.30;;;;;;10391482;22;20573;-61
2021/04/12 07:10:40;;;;;;;0.57;0.40;;;18.50;51.40;;;;;;10362499;28;20222;-62
2021/04/12 07:16:33;;;;;;;0.77;0.33;;;18.50;51.40;;;;;;10367904;28;20623;-61
2021/04/12 07:22:28;;;;;;;1.90;0.43;;;18.50;51.40;;;;;;10346215;28;20276;-61
2021/04/12 07:28:20;;;;;;;0.70;0.30;;;18.50;51.40;;;;;;10362959;28;20202;-61
2021/04/12 07:33:55;;;;;;;1.27;0.50;;;18.50;51.50;;;;;;10363271;28;20344;-60
2021/04/12 07:40:03;;;;;;;0.70;0.43;;;18.50;51.50;;;;;;10361799;28;20577;-60
2021/04/12 07:46:05;;;;;;;0.57;0.40;;;18.50;51.40;;;;;;10355736;28;20214;-60
2021/04/12 07:52:06;;;;;;;0.20;0.20;;;18.50;51.50;;;;;;10368495;28;20313;-61
2021/04/12 07:57:57;;;;;;;1.50;0.30;;;18.50;51.50;;;;;;10337395;28;20230;-60
2021/04/12 08:04:09;;;;;;;0.43;0.20;;;18.50;51.50;;;;;;10347474;28;20226;-61
2021/04/12 08:09:47;;;;;;;0.87;0.40;;;18.50;51.50;;;;;;10282970;28;20723;-61
2021/04/12 08:15:59;;;;;;;1.57;0.37;;;18.50;51.60;;;;;;10371311;28;20198;-59
2021/04/12 08:21:51;;;;;;;1.03;0.30;;;18.50;51.60;;;;;;10340542;28;20464;-61
2021/04/12 08:27:57;;;;;;;1.23;0.50;;;18.50;51.60;;;;;;10355087;28;20401;-61
2021/04/12 08:33:56;;;;;;;0.83;0.40;;;18.50;51.70;;;;;;10369260;28;20222;-62
2021/04/12 08:40:02;;;;;;;1.10;0.40;;;18.50;51.70;;;;;;10363269;28;20219;-60
2021/04/12 08:46:02;;;;;;;0.70;0.30;;;18.50;51.70;;;;;;10363834;28;20207;-61
2021/04/12 08:51:54;;;;;;;0.63;0.50;;;18.50;51.70;;;;;;10357992;28;20577;-61
2021/04/12 08:57:54;;;;;;;0.80;0.50;;;18.50;51.70;;;;;;10328687;28;20199;-61
2021/04/12 09:03:43;;;;;;;0.70;0.50;;;18.50;51.70;;;;;;10327566;28;20585;-61
2021/04/12 09:09:32;;;;;;;1.13;0.50;;;18.50;51.70;;;;;;10329140;28;20330;-61
2021/04/12 09:15:25;;;;;;;0.87;0.40;;;18.50;51.70;;;;;;10374508;28;20195;-60
2021/04/12 09:21:04;;;;;;;1.17;0.37;;;18.60;51.50;;;;;;10366159;28;20704;-60
2021/04/12 09:26:59;;;;;;;1.53;0.50;;;18.60;51.50;;;;;;10340608;28;20537;-60
2021/04/12 09:32:43;;;;;;;1.00;0.33;;;18.70;51.60;;;;;;10333437;28;20222;-60
2021/04/12 09:38:51;;;;;;;1.33;0.20;;;18.70;51.60;;;;;;10335490;28;20218;-60
2021/04/12 09:44:39;;;;;;;1.30;0.60;;;18.70;51.60;;;;;;10334357;28;20677;-61
2021/04/12 09:50:35;;;;;;;0.60;0.20;;;18.60;51.70;;;;;;10351045;28;20197;-60
2021/04/12 09:56:31;;;;;;;0.83;0.20;;;18.60;51.70;;;;;;10373876;28;20209;-61
2021/04/12 10:02:25;;;;;;;0.40;0.40;;;18.60;51.70;;;;;;10342770;28;20223;-61
2021/04/12 10:08:06;;;;;;;0.33;0.20;;;18.60;51.70;;;;;;10331130;28;20195;-61
2021/04/12 10:13:37;;;;;;;2.70;0.50;;;18.60;51.70;;;;;;10356360;28;20210;-60
2021/04/12 10:19:07;;;;;;;1.50;0.53;;;18.60;51.80;;;;;;10364693;28;20626;-62
2021/04/12 10:24:37;;;;;;;0.47;0.40;;;18.60;51.80;;;;;;10370566;28;20211;-61
2021/04/12 10:30:06;;;;;;;0.87;0.40;;;18.60;51.80;;;;;;10367931;28;20187;-61
2021/04/12 10:35:37;;;;;;;1.83;0.67;;;18.60;52.40;;;;;;10370158;28;20199;-61
2021/04/12 10:41:10;;;;;;;2.40;0.40;;;18.60;51.90;;;;;;10365520;28;20230;-60
2021/04/12 10:46:45;;;;;;;0.60;0.30;;;18.60;51.90;;;;;;10370025;28;20775;-61
2021/04/12 10:52:18;;;;;;;0.43;0.20;;;18.60;52.40;;;;;;10369322;28;20611;-58
2021/04/12 10:57:48;;;;;;;0.60;0.30;;;18.60;51.80;;;;;;10362297;28;20269;-62
2021/04/12 11:03:39;;;;;;;1.60;0.50;;;18.60;51.80;;;;;;10329290;28;20763;-61
2021/04/12 11:09:15;;;;;;;0.40;0.20;;;18.70;51.70;;;;;;10326997;28;20342;-61
2021/04/12 11:14:45;;;;;;;0.80;0.40;;;18.70;51.70;;;;;;10360897;28;20222;-63
2021/04/12 11:20:13;;;;;;;0.80;0.40;;;18.70;51.70;;;;;;10367660;28;20261;-60
2021/04/12 11:25:40;;;;;;;1.77;0.40;;;18.70;51.70;;;;;;10368464;28;20195;-59
2021/04/12 11:31:43;;;;;;;1.10;0.70;;;18.70;51.70;;;;;;10367330;28;20226;-60
2021/04/12 11:37:17;;;;;;;2.13;1.00;;;18.70;51.80;;;;;;10243121;28;20296;-61
2021/04/12 11:42:43;;;;;;;2.63;1.27;;;18.70;51.80;;;;;;10361652;28;20230;-62
2021/04/12 11:48:11;;;;;;;5.53;1.30;;;18.70;51.90;;;;;;10333029;28;20199;-61
2021/04/12 11:53:46;;;;;;;5.10;1.87;;;18.70;51.80;;;;;;10344804;28;20275;-61
2021/04/12 11:59:15;;;;;;;4.77;2.30;;;18.80;51.90;;;;;;10367473;28;20704;-58
2021/04/12 12:04:43;;;;;;;4.77;2.17;;;18.80;52.00;;;;;;10367251;28;20222;-61
2021/04/12 12:10:28;;;;;;;3.67;1.70;;;18.80;52.00;;;;;;10366370;28;20901;-61
2021/04/12 12:16:09;;;;;;;6.77;2.33;;;18.80;51.90;;;;;;10362459;28;20203;-60
2021/04/12 12:21:39;;;;;;;6.80;2.80;;;18.90;51.90;;;;;;10366324;28;20588;-61
2021/04/12 12:27:08;;;;;;;4.67;2.00;;;18.80;51.20;;;;;;10364460;28;20611;-60
2021/04/12 12:32:56;;;;;;;5.37;1.80;;;18.80;50.90;;;;;;10363224;28;20210;-61
2021/04/12 12:38:30;;;;;;;4.30;1.53;;;18.80;50.30;;;;;;10344330;28;20211;-61
2021/04/12 12:44:01;;;;;;;3.03;1.57;;;18.80;50.80;;;;;;10335272;28;20215;-61
2021/04/12 12:49:26;;;;;;;2.70;1.80;;;18.90;50.90;;;;;;10335174;28;20250;-61
2021/04/12 12:54:51;;;;;;;3.43;1.53;;;18.90;50.70;;;;;;10356921;28;20298;-61
2021/04/12 13:00:20;;;;;;;2.83;1.43;;;18.90;50.50;;;;;;10334620;28;20619;-61
2021/04/12 13:05:37;;;;;;;3.00;1.30;;;18.90;50.40;;;;;;10400855;28;20226;-62
2021/04/12 13:10:58;;;;;;;3.63;1.30;;;18.90;50.00;;;;;;10401047;28;20218;-62
2021/04/12 13:16:29;;;;;;;2.60;1.37;;;18.90;49.80;;;;;;10374435;28;20199;-61
2021/04/12 13:21:58;;;;;;;2.73;1.23;;;18.90;49.50;;;;;;10370397;28;20222;-62
2021/04/12 13:27:23;;;;;;;2.27;1.03;;;18.90;49.60;;;;;;10373707;28;20200;-62
2021/04/12 13:32:53;;;;;;;2.23;1.20;;;18.90;49.50;;;;;;10367544;28;20251;-62
2021/04/12 13:38:19;;;;;;;2.17;1.00;;;18.90;49.20;;;;;;10371439;28;20692;-62
2021/04/12 13:43:44;;;;;;;1.90;0.80;;;18.90;49.00;;;;;;10373407;28;20592;-62
2021/04/12 13:49:10;;;;;;;1.77;1.00;;;18.90;48.90;;;;;;10370900;28;20322;-62
2021/04/12 13:54:39;;;;;;;3.60;1.10;;;18.90;49.00;;;;;;10369049;28;20218;-60
2021/04/12 14:00:14;;;;;;;1.33;0.80;;;18.90;48.40;;;;;;10361473;28;20796;-62
2021/04/12 14:05:38;;;;;;;2.53;0.80;;;18.90;48.10;;;;;;10348253;28;20486;-62
2021/04/12 14:11:03;;;;;;;1.77;0.80;;;18.90;48.20;;;;;;10370312;28;20211;-62
2021/04/12 14:16:27;;;;;;;18.87;4.20;;;18.90;47.60;;;;;;10371676;28;20206;-63
2021/04/12 14:21:54;;;;;;;196.80;34.43;;;18.80;47.50;;;;;;10367965;28;20226;-62
2021/04/12 14:27:23;;;;;;;41.03;8.80;;;18.70;42.30;;;;;;10366606;28;20199;-62
2021/04/12 14:32:48;;;;;;;18.00;4.43;;;18.50;40.50;;;;;;10328474;28;20215;-61
2021/04/12 14:38:14;;;;;;;11.90;2.40;;;18.40;39.30;;;;;;10329978;28;20230;-61
2021/04/12 14:43:38;;;;;;;4.97;1.60;;;18.30;38.50;;;;;;10330113;28;20214;-61
2021/04/12 14:49:04;;;;;;;2.67;0.83;;;18.10;37.50;;;;;;10330232;28;20207;-62
2021/04/12 14:54:31;;;;;;;3.50;0.90;;;18.00;35.90;;;;;;10352531;28;20221;-62
2021/04/12 14:59:57;;;;;;;2.23;1.00;;;18.00;36.40;;;;;;10366603;28;20218;-62
2021/04/12 15:05:25;;;;;;;2.93;1.10;;;18.00;36.30;;;;;;10356695;28;20700;-62
2021/04/12 15:10:52;;;;;;;1.50;0.90;;;17.90;35.90;;;;;;10330136;28;20211;-63
2021/04/12 15:16:19;;;;;;;2.33;1.57;;;17.80;34.90;;;;;;10328979;28;20249;-63
2021/04/12 15:21:44;;;;;;;2.77;1.67;;;17.80;35.10;;;;;;10327880;28;20229;-63
2021/04/12 15:27:16;;;;;;;1.93;1.30;;;18.00;37.20;;;;;;10356844;28;20210;-63
2021/04/12 15:32:52;;;;;;;2.40;1.50;;;18.10;38.20;;;;;;10332703;28;20207;-62
2021/04/12 15:38:19;;;;;;;2.17;1.20;;;18.20;38.80;;;;;;10323111;28;20219;-62
2021/04/12 15:43:44;;;;;;;2.27;1.30;;;18.30;39.60;;;;;;10328281;28;20598;-62
2021/04/12 15:49:09;;;;;;;1.90;1.30;;;18.40;40.40;;;;;;10329549;28;20196;-61
2021/04/12 15:54:33;;;;;;;3.23;1.23;;;18.40;40.80;;;;;;10352153;28;20222;-60
2021/04/12 15:59:59;;;;;;;2.30;1.13;;;18.40;41.30;;;;;;10365550;28;20599;-62
2021/04/12 16:05:28;;;;;;;2.97;1.50;;;18.50;41.80;;;;;;10367719;28;20198;-61
2021/04/12 16:10:53;;;;;;;3.27;1.13;;;18.50;42.20;;;;;;10371932;28;20242;-62
2021/04/12 16:16:23;;;;;;;3.10;1.30;;;18.50;42.50;;;;;;10377454;28;20560;-61
2021/04/12 16:21:53;;;;;;;1.30;0.77;;;18.60;42.90;;;;;;10375060;28;20226;-61
2021/04/12 16:27:23;;;;;;;2.20;1.20;;;18.50;43.10;;;;;;10369905;28;20601;-61
2021/04/12 16:32:58;;;;;;;2.30;1.00;;;18.60;43.50;;;;;;10375974;28;20210;-61
2021/04/12 16:38:22;;;;;;;1.50;1.07;;;18.50;43.70;;;;;;10375552;28;20225;-62
2021/04/12 16:43:48;;;;;;;1.40;1.00;;;18.50;44.00;;;;;;10375897;28;20214;-62
2021/04/12 16:49:20;;;;;;;1.70;0.87;;;18.50;44.20;;;;;;10375264;28;20566;-61
2021/04/12 16:54:52;;;;;;;0.90;0.70;;;18.60;44.50;;;;;;10357831;28;20252;-62
2021/04/12 17:00:31;;;;;;;1.37;0.87;;;18.60;44.70;;;;;;10370650;28;20230;-62
2021/04/12 17:06:00;;;;;;;1.37;0.90;;;18.60;45.00;;;;;;10374808;28;20206;-62
2021/04/12 17:11:30;;;;;;;1.47;0.80;;;18.60;45.10;;;;;;10373652;28;20214;-64
2021/04/12 17:17:00;;;;;;;1.30;0.90;;;18.60;45.40;;;;;;10373922;28;20194;-62
2021/04/12 17:22:28;;;;;;;1.33;0.90;;;18.60;45.50;;;;;;10372932;28;20214;-63
2021/04/12 17:28:00;;;;;;;1.20;0.80;;;18.60;45.70;;;;;;10347224;28;20203;-61
2021/04/12 17:33:26;;;;;;;1.20;0.87;;;18.60;45.90;;;;;;10372626;28;20213;-64
2021/04/12 17:38:51;;;;;;;1.93;0.90;;;18.60;46.00;;;;;;10365416;28;20585;-60
2021/04/12 17:44:18;;;;;;;1.03;0.80;;;18.70;46.00;;;;;;10328727;28;20585;-61
2021/04/12 17:49:44;;;;;;;1.57;0.80;;;18.70;46.20;;;;;;10332000;28;20250;-63
2021/04/12 17:55:15;;;;;;;1.50;1.00;;;18.70;46.30;;;;;;10348777;28;20213;-61
2021/04/12 18:00:41;;;;;;;1.17;0.80;;;18.80;46.50;;;;;;10371248;28;20222;-59
2021/04/12 18:06:07;;;;;;;1.13;0.80;;;18.80;46.60;;;;;;10372633;28;20235;-59
2021/04/12 18:11:37;;;;;;;1.00;0.80;;;18.80;46.70;;;;;;10370847;28;20238;-56
2021/04/12 18:17:11;;;;;;;2.80;1.03;;;18.80;46.80;;;;;;10367736;28;20280;-58
2021/04/12 18:22:35;;;;;;;3.03;1.23;;;18.80;46.90;;;;;;10370815;28;20218;-59
2021/04/12 18:28:07;;;;;;;1.27;0.90;;;18.90;47.10;;;;;;10367535;28;20206;-61
2021/04/12 18:33:35;;;;;;;5.90;1.17;;;18.80;47.00;;;;;;10366891;28;20215;-62
2021/04/12 18:39:06;;;;;;;2.87;1.07;;;18.80;47.20;;;;;;10367087;28;20215;-61
2021/04/12 18:44:35;;;;;;;1.07;0.90;;;18.80;47.20;;;;;;10368903;28;20226;-61
2021/04/12 18:50:05;;;;;;;1.97;1.13;;;18.90;47.40;;;;;;10368174;28;20281;-60
2021/04/12 18:55:31;;;;;;;0.87;0.70;;;18.90;47.40;;;;;;10352199;28;20190;-63
2021/04/12 19:06:10;;;;;;;1.67;0.90;;;18.80;47.70;;;;;;10349146;28;20337;-61
2021/04/12 19:11:45;;;;;;;1.60;1.00;;;18.90;47.70;;;;;;10368676;28;20233;-60
2021/04/12 19:17:16;;;;;;;1.07;0.93;;;18.90;47.60;;;;;;10368797;28;20248;-61
2021/04/12 19:22:55;;;;;;;1.73;0.97;;;18.90;47.80;;;;;;10362501;28;20211;-61
2021/04/12 19:28:21;;;;;;;1.10;0.77;;;19.00;47.90;;;;;;10367969;28;20187;-61
2021/04/12 19:33:49;;;;;;;1.87;1.00;;;18.90;47.80;;;;;;10347059;28;20301;-60
2021/04/12 19:39:24;;;;;;;1.43;0.77;;;18.90;48.00;;;;;;10354825;28;20230;-59
2021/04/12 19:45:02;;;;;;;2.10;0.90;;;18.90;48.00;;;;;;10365694;28;20273;-58
2021/04/12 19:50:29;;;;;;;1.23;0.90;;;19.00;48.10;;;;;;10368507;28;20225;-58
2021/04/12 19:55:55;;;;;;;1.37;0.93;;;18.90;48.30;;;;;;10361683;28;20191;-59
2021/04/12 20:01:24;;;;;;;2.00;0.93;;;18.80;48.40;;;;;;10326432;28;20268;-60
2021/04/12 20:06:53;;;;;;;2.40;0.70;;;18.80;48.40;;;;;;10327850;28;20188;-60
2021/04/12 20:12:30;;;;;;;1.37;0.80;;;18.80;48.50;;;;;;10345932;28;20207;-58
2021/04/12 20:18:01;;;;;;;1.17;0.63;;;18.80;48.50;;;;;;10345687;28;20557;-60
2021/04/12 20:23:26;;;;;;;1.97;1.20;;;18.90;48.50;;;;;;10366935;28;20225;-59
2021/04/12 20:28:55;;;;;;;2.40;0.90;;;18.90;48.50;;;;;;10360856;28;20196;-60
2021/04/12 20:34:27;;;;;;;1.70;1.00;;;18.90;48.60;;;;;;10328093;28;20692;-59
2021/04/12 20:39:52;;;;;;;2.37;1.10;;;18.90;48.70;;;;;;10328155;28;20215;-58
2021/04/12 20:46:02;;;;;;;2.67;0.70;;;18.90;48.80;;;;;;10357053;28;20603;-59
2021/04/12 20:51:24;;;;;;;2.17;0.73;;;18.90;48.80;;;;;;10339985;28;20221;-60
2021/04/12 20:56:50;;;;;;;2.37;0.80;;;18.80;48.90;;;;;;10333815;28;20221;-59
2021/04/12 21:02:23;;;;;;;1.70;0.60;;;18.80;49.10;;;;;;10367150;28;20508;-60
2021/04/12 21:07:52;;;;;;;1.20;0.70;;;18.80;49.10;;;;;;10372988;28;20206;-59
2021/04/12 21:13:26;;;;;;;0.90;0.60;;;18.80;49.10;;;;;;10373987;28;20310;-60
2021/04/12 21:18:50;;;;;;;0.90;0.67;;;18.80;49.20;;;;;;10371721;28;20211;-60
2021/04/12 21:24:20;;;;;;;1.27;0.73;;;18.70;49.20;;;;;;10373562;28;20222;-59
2021/04/12 21:29:50;;;;;;;0.63;0.60;;;18.70;49.20;;;;;;10352189;28;20190;-60
2021/04/12 21:35:21;;;;;;;0.70;0.53;;;18.70;49.20;;;;;;10350816;28;20202;-60
2021/04/12 21:40:47;;;;;;;0.90;0.70;;;18.70;49.30;;;;;;10343970;28;20219;-60
2021/04/12 21:46:14;;;;;;;1.20;0.40;;;18.70;49.30;;;;;;10333537;28;20199;-59
2021/04/12 21:51:41;;;;;;;0.87;0.60;;;18.70;49.40;;;;;;10332806;28;20211;-58
2021/04/12 21:57:09;;;;;;;0.50;0.40;;;18.70;49.40;;;;;;10329533;28;20195;-59
2021/04/12 22:02:42;;;;;;;1.10;0.70;;;18.70;49.60;;;;;;10351693;28;20218;-59
2021/04/12 22:08:13;;;;;;;2.60;0.57;;;18.70;49.40;;;;;;10332553;28;20203;-60
2021/04/12 22:14:08;;;;;;;0.70;0.40;;;18.70;49.40;;;;;;10331688;28;20220;-59
2021/04/12 22:19:42;;;;;;;0.70;0.70;;;18.70;49.30;;;;;;10331141;28;20223;-60
2021/04/12 22:25:10;;;;;;;0.53;0.40;;;18.70;49.30;;;;;;10331303;28;20202;-58
2021/04/12 22:30:47;;;;;;;0.53;0.30;;;18.70;49.30;;;;;;10330353;28;20688;-59
2021/04/12 22:42:01;;;;;;;1.07;0.67;;;18.70;49.30;;;;;;10346437;28;20226;-59
2021/04/12 22:47:44;;;;;;;2.07;0.50;;;18.70;49.30;;;;;;10357619;28;20191;-60
2021/04/12 22:53:12;;;;;;;0.40;0.30;;;18.70;49.40;;;;;;10367193;28;20244;-59
2021/04/12 22:59:10;;;;;;;0.40;0.37;;;18.70;49.30;;;;;;10340055;28;20632;-59
2021/04/12 23:05:07;;;;;;;0.90;0.50;;;18.70;49.30;;;;;;10329910;28;20234;-59
2021/04/12 23:10:36;;;;;;;0.70;0.50;;;18.70;49.30;;;;;;10329090;28;20208;-59
2021/04/12 23:16:19;;;;;;;0.90;0.53;;;18.70;49.30;;;;;;10329194;28;20199;-60
2021/04/12 23:21:44;;;;;;;0.50;0.50;;;18.70;49.40;;;;;;10328268;28;20218;-59
2021/04/12 23:27:12;;;;;;;0.60;0.50;;;18.70;49.30;;;;;;10329935;28;20673;-59
2021/04/12 23:32:38;;;;;;;0.57;0.40;;;18.70;49.40;;;;;;10328231;28;20589;-59
2021/04/12 23:38:11;;;;;;;0.70;0.50;;;18.70;49.40;;;;;;10327667;28;20199;-58
2021/04/12 23:43:34;;;;;;;0.50;0.47;;;18.70;49.40;;;;;;10327929;28;20305;-60
2021/04/12 23:48:57;;;;;;;0.50;0.50;;;18.70;49.30;;;;;;10327957;28;20706;-60
2021/04/12 23:54:44;;;;;;;0.97;0.40;;;18.70;49.40;;;;;;10329470;28;20219;-60
